sensor_id;sensor_type;location;lat;lon;timestamp;pressure;altitude;pressure_sealevel;temperature;humidity
7337;BME280;54510;42.016;23.098;2023-02-11T00:00:03;-21103.88;;;-1.08;63.14
7337;BME280;54510;42.016;23.098;2023-02-11T00:02:31;-21101.38;;;-1.17;62.79
7337;BME280;54510;42.016;23.098;2023-02-11T00:04:57;-21099.53;;;-1.24;62.98
7337;BME280;54510;42.016;23.098;2023-02-11T00:07:22;-21095.88;;;-1.37;63.60
7337;BME280;54510;42.016;23.098;2023-02-11T00:09:48;-21093.47;;;-1.45;63.90
7337;BME280;54510;42.016;23.098;2023-02-11T00:12:13;-21090.94;;;-1.54;63.58
7337;BME280;54510;42.016;23.098;2023-02-11T00:14:40;-21090.94;;;-1.54;62.61
7337;BME280;54510;42.016;23.098;2023-02-11T00:17:05;-21092.22;;;-1.50;62.69
7337;BME280;54510;42.016;23.098;2023-02-11T00:19:31;-21095.59;;;-1.38;62.51
7337;BME280;54510;42.016;23.098;2023-02-11T00:21:56;-21096.00;;;-1.36;63.09
7337;BME280;54510;42.016;23.098;2023-02-11T00:24:21;-21094.06;;;-1.43;62.83
7337;BME280;54510;42.016;23.098;2023-02-11T00:26:47;-21092.50;;;-1.49;63.18
7337;BME280;54510;42.016;23.098;2023-02-11T00:29:12;-21088.97;;;-1.62;63.48
7337;BME280;54510;42.016;23.098;2023-02-11T00:31:38;-21091.38;;;-1.53;63.42
7337;BME280;54510;42.016;23.098;2023-02-11T00:34:03;-21090.53;;;-1.56;63.50
7337;BME280;54510;42.016;23.098;2023-02-11T00:36:29;-21091.38;;;-1.53;63.67
7337;BME280;54510;42.016;23.098;2023-02-11T00:38:55;-21092.34;;;-1.49;63.16
7337;BME280;54510;42.016;23.098;2023-02-11T00:41:22;-21093.19;;;-1.46;64.10
7337;BME280;54510;42.016;23.098;2023-02-11T00:43:48;-21091.38;;;-1.53;63.99
7337;BME280;54510;42.016;23.098;2023-02-11T00:46:14;-21089.25;;;-1.61;64.24
7337;BME280;54510;42.016;23.098;2023-02-11T00:48:40;-21084.91;;;-1.76;63.95
7337;BME280;54510;42.016;23.098;2023-02-11T00:51:06;-21084.91;;;-1.76;64.18
7337;BME280;54510;42.016;23.098;2023-02-11T00:53:32;-21079.13;;;-1.97;66.48
7337;BME280;54510;42.016;23.098;2023-02-11T00:55:58;-21082.38;;;-1.85;66.00
7337;BME280;54510;42.016;23.098;2023-02-11T00:58:23;-21083.50;;;-1.81;65.81
7337;BME280;54510;42.016;23.098;2023-02-11T01:00:49;-21078.44;;;-2.00;66.45
7337;BME280;54510;42.016;23.098;2023-02-11T01:03:14;-21081.94;;;-1.87;66.18
7337;BME280;54510;42.016;23.098;2023-02-11T01:05:40;-21084.63;;;-1.77;66.47
7337;BME280;54510;42.016;23.098;2023-02-11T01:08:05;-21087.00;;;-1.69;65.24
7337;BME280;54510;42.016;23.098;2023-02-11T01:10:31;-21085.75;;;-1.73;64.41
7337;BME280;54510;42.016;23.098;2023-02-11T01:12:56;-21084.91;;;-1.76;64.30
7337;BME280;54510;42.016;23.098;2023-02-11T01:15:22;-21082.78;;;-1.84;63.42
7337;BME280;54510;42.016;23.098;2023-02-11T01:17:47;-21082.09;;;-1.86;63.69
7337;BME280;54510;42.016;23.098;2023-02-11T01:20:19;-21081.53;;;-1.88;63.39
7337;BME280;54510;42.016;23.098;2023-02-11T01:22:45;-21078.28;;;-2.00;64.06
7337;BME280;54510;42.016;23.098;2023-02-11T01:25:10;-21078.00;;;-2.01;63.80
7337;BME280;54510;42.016;23.098;2023-02-11T01:27:36;-21079.41;;;-1.96;63.89
7337;BME280;54510;42.016;23.098;2023-02-11T01:30:03;-21076.19;;;-2.08;63.79
7337;BME280;54510;42.016;23.098;2023-02-11T01:32:28;-21076.75;;;-2.06;64.11
7337;BME280;54510;42.016;23.098;2023-02-11T01:34:54;-21075.34;;;-2.11;63.87
7337;BME280;54510;42.016;23.098;2023-02-11T01:37:19;-21077.31;;;-2.04;64.10
7337;BME280;54510;42.016;23.098;2023-02-11T01:39:45;-21080.13;;;-1.93;63.94
7337;BME280;54510;42.016;23.098;2023-02-11T01:42:14;-21078.44;;;-2.00;63.93
7337;BME280;54510;42.016;23.098;2023-02-11T01:44:40;-21077.59;;;-2.03;64.08
7337;BME280;54510;42.016;23.098;2023-02-11T01:47:06;-21078.44;;;-2.00;64.26
7337;BME280;54510;42.016;23.098;2023-02-11T01:49:38;-21081.53;;;-1.88;64.07
7337;BME280;54510;42.016;23.098;2023-02-11T01:52:16;-21073.09;;;-2.19;63.81
7337;BME280;54510;42.016;23.098;2023-02-11T01:54:48;-21074.50;;;-2.14;63.72
7337;BME280;54510;42.016;23.098;2023-02-11T01:57:36;-21070.56;;;-2.28;64.16
7337;BME280;54510;42.016;23.098;2023-02-11T02:03:01;-21073.66;;;-2.17;63.49
7337;BME280;54510;42.016;23.098;2023-02-11T02:05:58;-21070.28;;;-2.29;64.15
7337;BME280;54510;42.016;23.098;2023-02-11T02:08:35;-21072.66;;;-2.20;64.43
7337;BME280;54510;42.016;23.098;2023-02-11T02:11:03;-21072.09;;;-2.22;64.54
7337;BME280;54510;42.016;23.098;2023-02-11T02:13:31;-21072.94;;;-2.19;64.15
7337;BME280;54510;42.016;23.098;2023-02-11T02:16:00;-21069.16;;;-2.33;64.46
7337;BME280;54510;42.016;23.098;2023-02-11T02:37:32;-21062.38;;;-2.57;64.12
7337;BME280;54510;42.016;23.098;2023-02-11T02:40:02;-21060.97;;;-2.62;64.42
7337;BME280;54510;42.016;23.098;2023-02-11T02:42:29;-21057.88;;;-2.73;64.90
7337;BME280;54510;42.016;23.098;2023-02-11T02:44:57;-21054.78;;;-2.85;65.48
7337;BME280;54510;42.016;23.098;2023-02-11T02:47:22;-21056.06;;;-2.80;66.08
7337;BME280;54510;42.016;23.098;2023-02-11T02:49:47;-21060.13;;;-2.65;65.45
7337;BME280;54510;42.016;23.098;2023-02-11T03:00:43;-21057.03;;;-2.76;65.77
7337;BME280;54510;42.016;23.098;2023-02-11T03:03:21;-21057.03;;;-2.76;65.45
7337;BME280;54510;42.016;23.098;2023-02-11T03:06:02;-21050.56;;;-3.00;65.76
7337;BME280;54510;42.016;23.098;2023-02-11T03:08:37;-21045.34;;;-3.19;66.18
7337;BME280;54510;42.016;23.098;2023-02-11T03:11:06;-21047.75;;;-3.10;66.36
7337;BME280;54510;42.016;23.098;2023-02-11T03:13:35;-21045.78;;;-3.17;66.18
7337;BME280;54510;42.016;23.098;2023-02-11T03:16:31;-21046.47;;;-3.14;66.57
7337;BME280;54510;42.016;23.098;2023-02-11T03:19:05;-21042.69;;;-3.28;66.81
7337;BME280;54510;42.016;23.098;2023-02-11T03:21:35;-21046.47;;;-3.14;66.76
7337;BME280;54510;42.016;23.098;2023-02-11T03:24:07;-21052.81;;;-2.92;66.54
7337;BME280;54510;42.016;23.098;2023-02-11T03:26:45;-21050.97;;;-2.98;66.47
7337;BME280;54510;42.016;23.098;2023-02-11T03:37:01;-21050.00;;;-3.02;64.60
7337;BME280;54510;42.016;23.098;2023-02-11T03:39:43;-21051.81;;;-2.95;64.05
7337;BME280;54510;42.016;23.098;2023-02-11T03:42:12;-21048.31;;;-3.08;64.40
7337;BME280;54510;42.016;23.098;2023-02-11T03:44:43;-21044.09;;;-3.23;64.95
7337;BME280;54510;42.016;23.098;2023-02-11T03:47:12;-21043.22;;;-3.26;65.36
7337;BME280;54510;42.016;23.098;2023-02-11T03:49:40;-21038.88;;;-3.42;65.79
7337;BME280;54510;42.016;23.098;2023-02-11T03:52:08;-21038.44;;;-3.43;65.66
7337;BME280;54510;42.016;23.098;2023-02-11T03:54:36;-21042.69;;;-3.28;65.80
7337;BME280;54510;42.016;23.098;2023-02-11T03:57:03;-21040.69;;;-3.35;65.46
7337;BME280;54510;42.016;23.098;2023-02-11T03:59:28;-21042.94;;;-3.27;66.02
7337;BME280;54510;42.016;23.098;2023-02-11T04:01:54;-21038.16;;;-3.44;66.13
7337;BME280;54510;42.016;23.098;2023-02-11T04:04:20;-21036.75;;;-3.49;66.61
7337;BME280;54510;42.016;23.098;2023-02-11T04:06:46;-21035.63;;;-3.53;67.48
7337;BME280;54510;42.016;23.098;2023-02-11T04:09:11;-21043.22;;;-3.26;67.33
7337;BME280;54510;42.016;23.098;2023-02-11T04:11:37;-21040.56;;;-3.36;66.26
7337;BME280;54510;42.016;23.098;2023-02-11T04:14:03;-21040.69;;;-3.35;67.12
7337;BME280;54510;42.016;23.098;2023-02-11T04:16:28;-21043.22;;;-3.26;66.74
7337;BME280;54510;42.016;23.098;2023-02-11T04:18:55;-21041.53;;;-3.32;66.95
7337;BME280;54510;42.016;23.098;2023-02-11T04:21:21;-21043.38;;;-3.26;66.11
7337;BME280;54510;42.016;23.098;2023-02-11T04:23:46;-21041.25;;;-3.33;67.07
7337;BME280;54510;42.016;23.098;2023-02-11T04:26:11;-21040.56;;;-3.36;67.03
7337;BME280;54510;42.016;23.098;2023-02-11T04:28:37;-21044.38;;;-3.22;66.61
7337;BME280;54510;42.016;23.098;2023-02-11T04:31:02;-21039.16;;;-3.41;66.05
7337;BME280;54510;42.016;23.098;2023-02-11T04:33:28;-21041.97;;;-3.31;65.81
7337;BME280;54510;42.016;23.098;2023-02-11T04:35:53;-21039.16;;;-3.41;65.31
7337;BME280;54510;42.016;23.098;2023-02-11T04:38:18;-21036.75;;;-3.49;65.28
7337;BME280;54510;42.016;23.098;2023-02-11T04:40:44;-21036.19;;;-3.51;66.05
7337;BME280;54510;42.016;23.098;2023-02-11T04:43:09;-21034.63;;;-3.57;65.72
7337;BME280;54510;42.016;23.098;2023-02-11T04:45:35;-21036.47;;;-3.50;66.05
7337;BME280;54510;42.016;23.098;2023-02-11T04:48:02;-21037.19;;;-3.48;65.52
7337;BME280;54510;42.016;23.098;2023-02-11T04:50:28;-21034.94;;;-3.56;66.02
7337;BME280;54510;42.016;23.098;2023-02-11T04:52:53;-21036.19;;;-3.51;65.54
7337;BME280;54510;42.016;23.098;2023-02-11T04:55:19;-21033.66;;;-3.61;65.71
7337;BME280;54510;42.016;23.098;2023-02-11T04:57:44;-21037.88;;;-3.45;66.02
7337;BME280;54510;42.016;23.098;2023-02-11T05:00:10;-21035.34;;;-3.54;66.42
7337;BME280;54510;42.016;23.098;2023-02-11T05:02:35;-21036.91;;;-3.49;66.66
7337;BME280;54510;42.016;23.098;2023-02-11T05:05:01;-21034.78;;;-3.56;66.97
7337;BME280;54510;42.016;23.098;2023-02-11T05:07:26;-21031.41;;;-3.69;66.83
7337;BME280;54510;42.016;23.098;2023-02-11T05:09:52;-21034.22;;;-3.59;66.95
7337;BME280;54510;42.016;23.098;2023-02-11T05:12:18;-21036.19;;;-3.51;65.90
7337;BME280;54510;42.016;23.098;2023-02-11T05:14:43;-21034.94;;;-3.56;65.93
7337;BME280;54510;42.016;23.098;2023-02-11T05:17:08;-21032.81;;;-3.64;66.07
7337;BME280;54510;42.016;23.098;2023-02-11T05:19:34;-21030.00;;;-3.74;66.50
7337;BME280;54510;42.016;23.098;2023-02-11T05:21:59;-21032.25;;;-3.66;66.22
7337;BME280;54510;42.016;23.098;2023-02-11T05:24:25;-21034.22;;;-3.59;66.28
7337;BME280;54510;42.016;23.098;2023-02-11T05:26:50;-21033.78;;;-3.60;66.46
7337;BME280;54510;42.016;23.098;2023-02-11T05:29:16;-21030.56;;;-3.72;66.56
7337;BME280;54510;42.016;23.098;2023-02-11T05:31:41;-21028.72;;;-3.78;66.40
7337;BME280;54510;42.016;23.098;2023-02-11T05:34:07;-21027.16;;;-3.84;66.98
7337;BME280;54510;42.016;23.098;2023-02-11T05:36:32;-21018.28;;;-4.16;67.87
7337;BME280;54510;42.016;23.098;2023-02-11T05:38:58;-21023.38;;;-3.97;68.20
7337;BME280;54510;42.016;23.098;2023-02-11T05:41:23;-21026.75;;;-3.85;67.63
7337;BME280;54510;42.016;23.098;2023-02-11T05:43:49;-21033.09;;;-3.63;67.15
7337;BME280;54510;42.016;23.098;2023-02-11T05:46:17;-21029.44;;;-3.76;66.70
7337;BME280;54510;42.016;23.098;2023-02-11T05:48:43;-21029.28;;;-3.76;66.86
7337;BME280;54510;42.016;23.098;2023-02-11T05:51:09;-21029.16;;;-3.77;66.31
7337;BME280;54510;42.016;23.098;2023-02-11T05:53:34;-21029.44;;;-3.76;66.55
7337;BME280;54510;42.016;23.098;2023-02-11T05:56:00;-21028.59;;;-3.79;66.36
7337;BME280;54510;42.016;23.098;2023-02-11T05:58:25;-21029.16;;;-3.77;65.99
7337;BME280;54510;42.016;23.098;2023-02-11T06:00:51;-21029.72;;;-3.75;65.80
7337;BME280;54510;42.016;23.098;2023-02-11T06:03:17;-21028.59;;;-3.79;66.03
7337;BME280;54510;42.016;23.098;2023-02-11T06:05:43;-21027.16;;;-3.84;66.37
7337;BME280;54510;42.016;23.098;2023-02-11T06:08:09;-21031.41;;;-3.69;66.63
7337;BME280;54510;42.016;23.098;2023-02-11T06:10:35;-21032.81;;;-3.64;65.62
7337;BME280;54510;42.016;23.098;2023-02-11T06:13:01;-21032.09;;;-3.66;65.34
7337;BME280;54510;42.016;23.098;2023-02-11T06:15:26;-21033.09;;;-3.63;64.96
7337;BME280;54510;42.016;23.098;2023-02-11T06:17:52;-21036.06;;;-3.52;65.34
7337;BME280;54510;42.016;23.098;2023-02-11T06:20:17;-21035.63;;;-3.53;65.33
7337;BME280;54510;42.016;23.098;2023-02-11T06:22:43;-21038.16;;;-3.44;65.30
7337;BME280;54510;42.016;23.098;2023-02-11T06:25:09;-21039.28;;;-3.40;65.59
7337;BME280;54510;42.016;23.098;2023-02-11T06:27:35;-21041.69;;;-3.32;65.17
7337;BME280;54510;42.016;23.098;2023-02-11T06:30:02;-21041.69;;;-3.32;64.53
7337;BME280;54510;42.016;23.098;2023-02-11T06:32:28;-21041.13;;;-3.34;64.61
7337;BME280;54510;42.016;23.098;2023-02-11T06:34:54;-21041.25;;;-3.33;64.70
7337;BME280;54510;42.016;23.098;2023-02-11T06:37:19;-21041.41;;;-3.33;64.81
7337;BME280;54510;42.016;23.098;2023-02-11T06:39:44;-21044.38;;;-3.22;64.99
7337;BME280;54510;42.016;23.098;2023-02-11T06:42:10;-21049.16;;;-3.05;64.72
7337;BME280;54510;42.016;23.098;2023-02-11T06:44:35;-21049.28;;;-3.04;64.51
7337;BME280;54510;42.016;23.098;2023-02-11T06:47:01;-21052.66;;;-2.92;64.30
7337;BME280;54510;42.016;23.098;2023-02-11T06:49:26;-21054.09;;;-2.87;63.75
7337;BME280;54510;42.016;23.098;2023-02-11T06:51:51;-21054.50;;;-2.86;63.64
7337;BME280;54510;42.016;23.098;2023-02-11T06:54:17;-21052.25;;;-2.94;63.42
7337;BME280;54510;42.016;23.098;2023-02-11T06:56:42;-21058.16;;;-2.72;63.23
7337;BME280;54510;42.016;23.098;2023-02-11T06:59:13;-21060.97;;;-2.62;63.16
7337;BME280;54510;42.016;23.098;2023-02-11T07:01:39;-21064.06;;;-2.51;63.45
7337;BME280;54510;42.016;23.098;2023-02-11T07:04:04;-21068.31;;;-2.36;63.18
7337;BME280;54510;42.016;23.098;2023-02-11T07:06:30;-21070.84;;;-2.27;62.95
7337;BME280;54510;42.016;23.098;2023-02-11T07:08:56;-21072.53;;;-2.21;62.84
7337;BME280;54510;42.016;23.098;2023-02-11T07:11:27;-21071.69;;;-2.24;63.00
7337;BME280;54510;42.016;23.098;2023-02-11T07:13:54;-21067.47;;;-2.39;63.18
7337;BME280;54510;42.016;23.098;2023-02-11T07:16:20;-21067.47;;;-2.39;63.57
7337;BME280;54510;42.016;23.098;2023-02-11T07:18:47;-21068.31;;;-2.36;63.03
7337;BME280;54510;42.016;23.098;2023-02-11T07:21:14;-21070.28;;;-2.29;63.34
7337;BME280;54510;42.016;23.098;2023-02-11T07:23:40;-21073.66;;;-2.17;63.81
7337;BME280;54510;42.016;23.098;2023-02-11T07:26:08;-21074.22;;;-2.15;63.45
7337;BME280;54510;42.016;23.098;2023-02-11T07:28:36;-21076.31;;;-2.07;63.30
7337;BME280;54510;42.016;23.098;2023-02-11T07:31:09;-21079.41;;;-1.96;62.54
7337;BME280;54510;42.016;23.098;2023-02-11T07:33:36;-21072.66;;;-2.20;63.11
7337;BME280;54510;42.016;23.098;2023-02-11T07:36:02;-21079.84;;;-1.94;62.72
7337;BME280;54510;42.016;23.098;2023-02-11T07:38:28;-21081.66;;;-1.88;62.13
7337;BME280;54510;42.016;23.098;2023-02-11T07:40:54;-21087.00;;;-1.69;62.11
7337;BME280;54510;42.016;23.098;2023-02-11T07:43:19;-21089.69;;;-1.59;61.88
7337;BME280;54510;42.016;23.098;2023-02-11T07:45:44;-21091.50;;;-1.52;62.03
7337;BME280;54510;42.016;23.098;2023-02-11T07:48:10;-21094.31;;;-1.42;61.99
7337;BME280;54510;42.016;23.098;2023-02-11T07:50:35;-21098.97;;;-1.26;61.63
7337;BME280;54510;42.016;23.098;2023-02-11T07:53:01;-21098.97;;;-1.26;61.53
7337;BME280;54510;42.016;23.098;2023-02-11T07:55:27;-21099.94;;;-1.22;61.48
7337;BME280;54510;42.016;23.098;2023-02-11T07:57:52;-21105.56;;;-1.02;60.94
7337;BME280;54510;42.016;23.098;2023-02-11T08:00:18;-21105.16;;;-1.03;59.87
7337;BME280;54510;42.016;23.098;2023-02-11T08:02:43;-21105.84;;;-1.01;60.34
7337;BME280;54510;42.016;23.098;2023-02-11T08:05:08;-21115.00;;;-0.68;60.11
7337;BME280;54510;42.016;23.098;2023-02-11T08:07:34;-21115.97;;;-0.64;59.86
7337;BME280;54510;42.016;23.098;2023-02-11T08:09:59;-21121.31;;;-0.45;59.58
7337;BME280;54510;42.016;23.098;2023-02-11T08:12:25;-21125.53;;;-0.30;59.05
7337;BME280;54510;42.016;23.098;2023-02-11T08:14:50;-21124.53;;;-0.33;58.56
7337;BME280;54510;42.016;23.098;2023-02-11T08:17:15;-21125.53;;;-0.30;58.59
7337;BME280;54510;42.016;23.098;2023-02-11T08:19:41;-21126.50;;;-0.26;58.73
7337;BME280;54510;42.016;23.098;2023-02-11T08:22:07;-21131.00;;;-0.10;58.21
7337;BME280;54510;42.016;23.098;2023-02-11T08:24:32;-21133.81;;;0.00;58.17
7337;BME280;54510;42.016;23.098;2023-02-11T08:26:58;-21137.59;;;0.14;57.78
7337;BME280;54510;42.016;23.098;2023-02-11T08:29:23;-21141.25;;;0.27;56.82
7337;BME280;54510;42.016;23.098;2023-02-11T08:31:49;-21145.59;;;0.43;56.17
7337;BME280;54510;42.016;23.098;2023-02-11T08:34:15;-21150.66;;;0.61;55.68
7337;BME280;54510;42.016;23.098;2023-02-11T08:36:43;-21153.19;;;0.70;55.79
7337;BME280;54510;42.016;23.098;2023-02-11T08:39:18;-21151.66;;;0.64;54.15
7337;BME280;54510;42.016;23.098;2023-02-11T08:41:44;-21154.88;;;0.76;54.50
7337;BME280;54510;42.016;23.098;2023-02-11T08:44:10;-21151.38;;;0.63;54.76
7337;BME280;54510;42.016;23.098;2023-02-11T08:46:36;-21155.56;;;0.78;55.04
7337;BME280;54510;42.016;23.098;2023-02-11T08:49:02;-21153.75;;;0.72;54.42
7337;BME280;54510;42.016;23.098;2023-02-11T08:51:28;-21152.91;;;0.69;55.06
7337;BME280;54510;42.016;23.098;2023-02-11T08:53:57;-21160.34;;;0.96;54.35
7337;BME280;54510;42.016;23.098;2023-02-11T08:56:23;-21157.69;;;0.86;53.60
7337;BME280;54510;42.016;23.098;2023-02-11T08:58:50;-21153.34;;;0.70;53.50
7337;BME280;54510;42.016;23.098;2023-02-11T09:01:21;-21154.72;;;0.75;53.31
7337;BME280;54510;42.016;23.098;2023-02-11T09:03:48;-21151.78;;;0.65;53.32
7337;BME280;54510;42.016;23.098;2023-02-11T09:06:14;-21159.66;;;0.93;53.41
7337;BME280;54510;42.016;23.098;2023-02-11T09:08:42;-21168.91;;;1.27;53.09
7337;BME280;54510;42.016;23.098;2023-02-11T09:11:09;-21178.59;;;1.62;52.47
7337;BME280;54510;42.016;23.098;2023-02-11T09:13:34;-21180.97;;;1.70;52.25
7337;BME280;54510;42.016;23.098;2023-02-11T09:16:02;-21180.25;;;1.68;50.82
7337;BME280;54510;42.016;23.098;2023-02-11T09:18:28;-21180.25;;;1.68;50.91
7337;BME280;54510;42.016;23.098;2023-02-11T09:21:09;-21173.13;;;1.42;50.75
7337;BME280;54510;42.016;23.098;2023-02-11T09:23:35;-21178.16;;;1.60;50.56
7337;BME280;54510;42.016;23.098;2023-02-11T09:26:09;-21183.47;;;1.79;50.44
7337;BME280;54510;42.016;23.098;2023-02-11T09:28:34;-21187.13;;;1.92;49.78
7337;BME280;54510;42.016;23.098;2023-02-11T09:31:08;-21187.97;;;1.95;50.01
7337;BME280;54510;42.016;23.098;2023-02-11T09:33:33;-21192.19;;;2.11;49.78
7337;BME280;54510;42.016;23.098;2023-02-11T09:36:01;-21193.72;;;2.16;49.60
7337;BME280;54510;42.016;23.098;2023-02-11T09:38:27;-21191.91;;;2.10;49.71
7337;BME280;54510;42.016;23.098;2023-02-11T09:40:52;-21197.09;;;2.28;49.60
7337;BME280;54510;42.016;23.098;2023-02-11T09:43:31;-21198.63;;;2.34;48.69
7337;BME280;54510;42.016;23.098;2023-02-11T09:45:58;-21205.34;;;2.58;48.52
7337;BME280;54510;42.016;23.098;2023-02-11T09:48:24;-21197.50;;;2.30;48.47
7337;BME280;54510;42.016;23.098;2023-02-11T09:51:00;-21201.44;;;2.44;48.77
7337;BME280;54510;42.016;23.098;2023-02-11T09:53:31;-21208.72;;;2.70;47.71
7337;BME280;54510;42.016;23.098;2023-02-11T09:56:10;-21209.81;;;2.74;48.11
7337;BME280;54510;42.016;23.098;2023-02-11T09:58:39;-21213.06;;;2.86;47.66
7337;BME280;54510;42.016;23.098;2023-02-11T10:01:29;-21211.78;;;2.82;46.87
7337;BME280;54510;42.016;23.098;2023-02-11T10:06:49;-21220.88;;;3.14;47.56
7337;BME280;54510;42.016;23.098;2023-02-11T10:17:37;-21233.75;;;3.61;45.74
7337;BME280;54510;42.016;23.098;2023-02-11T10:20:35;-21230.25;;;3.48;45.96
7337;BME280;54510;42.016;23.098;2023-02-11T10:23:09;-21235.59;;;3.68;46.71
7337;BME280;54510;42.016;23.098;2023-02-11T10:25:46;-21237.41;;;3.74;44.78
7337;BME280;54510;42.016;23.098;2023-02-11T10:31:06;-21243.56;;;3.96;43.47
7337;BME280;54510;42.016;23.098;2023-02-11T10:36:07;-21250.00;;;4.20;42.60
7337;BME280;54510;42.016;23.098;2023-02-11T10:38:35;-21244.81;;;4.01;43.07
7337;BME280;54510;42.016;23.098;2023-02-11T10:41:01;-21241.88;;;3.90;43.50
7337;BME280;54510;42.016;23.098;2023-02-11T10:43:27;-21244.25;;;3.99;43.28
7337;BME280;54510;42.016;23.098;2023-02-11T10:45:55;-21252.78;;;4.30;43.28
7337;BME280;54510;42.016;23.098;2023-02-11T10:48:39;-21251.09;;;4.24;42.44
7337;BME280;54510;42.016;23.098;2023-02-11T10:51:16;-21253.63;;;4.33;42.34
7337;BME280;54510;42.016;23.098;2023-02-11T10:53:41;-21254.47;;;4.36;42.53
7337;BME280;54510;42.016;23.098;2023-02-11T10:56:10;-21255.72;;;4.41;42.61
7337;BME280;54510;42.016;23.098;2023-02-11T10:58:43;-21262.44;;;4.65;40.54
7337;BME280;54510;42.016;23.098;2023-02-11T11:01:10;-21255.16;;;4.38;41.19
7337;BME280;54510;42.016;23.098;2023-02-11T11:03:38;-21256.56;;;4.44;41.35
7337;BME280;54510;42.016;23.098;2023-02-11T11:06:08;-21259.06;;;4.53;40.94
7337;BME280;54510;42.016;23.098;2023-02-11T11:08:48;-21263.97;;;4.70;40.74
7337;BME280;54510;42.016;23.098;2023-02-11T11:11:21;-21266.34;;;4.79;40.74
7337;BME280;54510;42.016;23.098;2023-02-11T11:13:57;-21269.00;;;4.89;41.03
7337;BME280;54510;42.016;23.098;2023-02-11T11:18:51;-21277.25;;;5.19;40.17
7337;BME280;54510;42.016;23.098;2023-02-11T11:21:25;-21277.50;;;5.20;40.09
7337;BME280;54510;42.016;23.098;2023-02-11T11:23:56;-21285.34;;;5.48;39.96
7337;BME280;54510;42.016;23.098;2023-02-11T11:26:25;-21288.41;;;5.59;39.57
7337;BME280;54510;42.016;23.098;2023-02-11T11:29:16;-21287.00;;;5.54;40.46
7337;BME280;54510;42.016;23.098;2023-02-11T11:31:52;-21290.66;;;5.67;40.12
7337;BME280;54510;42.016;23.098;2023-02-11T11:34:27;-21291.75;;;5.71;39.61
7337;BME280;54510;42.016;23.098;2023-02-11T11:36:55;-21295.94;;;5.86;40.51
7337;BME280;54510;42.016;23.098;2023-02-11T11:39:27;-21301.69;;;6.07;39.55
7337;BME280;54510;42.016;23.098;2023-02-11T11:42:12;-21305.16;;;6.20;39.65
7337;BME280;54510;42.016;23.098;2023-02-11T11:44:59;-21311.16;;;6.42;39.25
7337;BME280;54510;42.016;23.098;2023-02-11T11:47:34;-21315.34;;;6.57;38.38
7337;BME280;54510;42.016;23.098;2023-02-11T11:55:24;-21312.28;;;6.46;37.02
7337;BME280;54510;42.016;23.098;2023-02-11T11:57:49;-21316.31;;;6.60;36.82
7337;BME280;54510;42.016;23.098;2023-02-11T12:00:20;-21316.88;;;6.62;35.06
7337;BME280;54510;42.016;23.098;2023-02-11T12:05:52;-21319.13;;;6.70;34.51
7337;BME280;54510;42.016;23.098;2023-02-11T12:21:40;-21338.06;;;7.39;35.06
7337;BME280;54510;42.016;23.098;2023-02-11T12:27:37;-21341.13;;;7.50;33.99
7337;BME280;54510;42.016;23.098;2023-02-11T12:32:58;-21346.16;;;7.69;32.51
7337;BME280;54510;42.016;23.098;2023-02-11T12:38:31;-21351.59;;;7.88;32.53
7337;BME280;54510;42.016;23.098;2023-02-11T12:44:37;-21363.69;;;8.32;32.37
7337;BME280;54510;42.016;23.098;2023-02-11T12:55:26;-21370.25;;;8.56;30.54
7337;BME280;54510;42.016;23.098;2023-02-11T12:57:55;-21375.09;;;8.74;30.45
7337;BME280;54510;42.016;23.098;2023-02-11T13:00:45;-21380.25;;;8.93;29.48
7337;BME280;54510;42.016;23.098;2023-02-11T13:03:21;-21380.41;;;8.93;29.11
7337;BME280;54510;42.016;23.098;2023-02-11T13:05:52;-21379.41;;;8.90;29.46
7337;BME280;54510;42.016;23.098;2023-02-11T13:11:01;-21390.81;;;9.31;29.13
7337;BME280;54510;42.016;23.098;2023-02-11T13:13:41;-21390.53;;;9.30;29.11
7337;BME280;54510;42.016;23.098;2023-02-11T13:16:29;-21392.78;;;9.38;28.97
7337;BME280;54510;42.016;23.098;2023-02-11T13:19:01;-21395.41;;;9.48;28.67
7337;BME280;54510;42.016;23.098;2023-02-11T13:27:05;-21409.16;;;9.98;27.64
7337;BME280;54510;42.016;23.098;2023-02-11T13:32:23;-21420.13;;;10.38;26.55
7337;BME280;54510;42.016;23.098;2023-02-11T13:37:35;-21419.31;;;10.35;27.15
7337;BME280;54510;42.016;23.098;2023-02-11T13:40:04;-21425.69;;;10.58;27.06
7337;BME280;54510;42.016;23.098;2023-02-11T13:42:33;-21427.09;;;10.63;26.60
7337;BME280;54510;42.016;23.098;2023-02-11T13:47:56;-21432.22;;;10.82;28.14
7337;BME280;54510;42.016;23.098;2023-02-11T13:50:23;-21440.53;;;11.13;27.71
7337;BME280;54510;42.016;23.098;2023-02-11T13:52:57;-21439.56;;;11.09;28.79
7337;BME280;54510;42.016;23.098;2023-02-11T13:55:23;-21444.84;;;11.28;26.91
7337;BME280;54510;42.016;23.098;2023-02-11T14:14:23;-21443.88;;;11.25;25.38
7337;BME280;54510;42.016;23.098;2023-02-11T14:19:44;-21434.72;;;10.91;25.22
7337;BME280;54510;42.016;23.098;2023-02-11T14:22:23;-21439.56;;;11.09;25.81
7337;BME280;54510;42.016;23.098;2023-02-11T14:38:08;-21442.22;;;11.19;25.37
7337;BME280;54510;42.016;23.098;2023-02-11T14:40:47;-21435.97;;;10.96;25.54
7337;BME280;54510;42.016;23.098;2023-02-11T14:43:18;-21433.47;;;10.87;25.63
7337;BME280;54510;42.016;23.098;2023-02-11T14:45:49;-21433.47;;;10.87;24.76
7337;BME280;54510;42.016;23.098;2023-02-11T14:48:17;-21435.41;;;10.94;25.61
7337;BME280;54510;42.016;23.098;2023-02-11T14:50:51;-21429.84;;;10.74;25.30
7337;BME280;54510;42.016;23.098;2023-02-11T14:53:21;-21427.91;;;10.66;25.42
7337;BME280;54510;42.016;23.098;2023-02-11T14:55:49;-21428.19;;;10.67;25.30
7337;BME280;54510;42.016;23.098;2023-02-11T14:58:23;-21432.78;;;10.84;25.33
7337;BME280;54510;42.016;23.098;2023-02-11T15:04:29;-21438.19;;;11.04;24.60
7337;BME280;54510;42.016;23.098;2023-02-11T15:06:56;-21425.00;;;10.56;25.06
7337;BME280;54510;42.016;23.098;2023-02-11T15:09:53;-21419.88;;;10.37;25.33
7337;BME280;54510;42.016;23.098;2023-02-11T15:12:24;-21429.03;;;10.71;25.77
7337;BME280;54510;42.016;23.098;2023-02-11T15:14:53;-21419.59;;;10.36;25.47
7337;BME280;54510;42.016;23.098;2023-02-11T15:17:25;-21418.63;;;10.33;26.16
7337;BME280;54510;42.016;23.098;2023-02-11T15:19:54;-21416.66;;;10.25;25.84
7337;BME280;54510;42.016;23.098;2023-02-11T15:22:32;-21408.19;;;9.95;25.65
7337;BME280;54510;42.016;23.098;2023-02-11T15:25:10;-21403.47;;;9.77;25.95
7337;BME280;54510;42.016;23.098;2023-02-11T15:27:53;-21398.59;;;9.60;26.76
7337;BME280;54510;42.016;23.098;2023-02-11T15:32:48;-21392.22;;;9.36;27.63
7337;BME280;54510;42.016;23.098;2023-02-11T15:35:15;-21381.78;;;8.98;28.05